Owings, MD

10:44 AM EST on February 11, 2016 (GMT -0500)
Victoria Station | | Change Station
CLOSE
Current Station
Personal Weather Station
Location: Owings, MD
Elevation: 157 ft
Nearby Weather Stations

Elev 157 ft 38.69 °N, 76.62 °W | Updated 14 minutes ago

Mostly Cloudy
Mostly Cloudy
24.0 °F
Feels Like 18 °F
N
5.0
Wind Variable Wind from West
Gusts 8.0 mph

Today
High -- | Low -- °F
--% Chance of Precip.
Yesterday
High -- | Low -- °F
Precip. -- in
Pressure 30.14 in
Visibility 10.0 miles
Clouds Mostly Cloudy 5500 ft
Windchill 18 °F
Dew Point 4 °F
Humidity 42%
Rainfall 0.00 in
Snow Depth Not available.
7:02 AM 5:39 PM
Waxing Crescent, 12% visible
METAR KADW 111458Z AUTO 30019G25KT 10SM BKN055 M05/M18 A3011 RMK AO2 PK WND 27031/27 SLP207 T10501176 52022
Pressure 30.14 in
Visibility 10.0 miles
Clouds Mostly Cloudy 5500 ft
Windchill 18 °F
Dew Point 4 °F
Humidity 42%
Rainfall 0.00 in
Snow Depth Not available.
7:02 AM 5:39 PM
Waxing Crescent, 12% visible
METAR KADW 111458Z AUTO 30019G25KT 10SM BKN055 M05/M18 A3011 RMK AO2 PK WND 27031/27 SLP207 T10501176 52022

10-Day Weather Forecast

Almanac

Astronomy

Feb. 11, 2016 Rise Set
Actual Time
Civil Twilight
Nautical Twilight
Astronomical Twilight
Moon
Length of Visible Light
Length of Day
Tomorrow will be .
, % of the Moon is Illuminated

Today's Extremes

State Highs State Lows

Community

WunderPhotos

Upload Photos

1,892,081 photos uploaded!

WunderBlog® & News

Nearby

Air Quality

  Air Quality AQ Index Pollutant
Not available.

Snow Depth

Station Depth Elevation

Earthquake Activity

City Distance Mag. Time & Date
Minimum magnitude displayed is 2.5.

Coastal Water Temperatures

Place Temperature

Stations

Nearby Weather Stations

Station Location Temp. Windchill Dew Point Humidity Wind Precip. Elev Updated Type
                   

Watches & Warnings

There are currently no watches in effect.